Time;durP1;ratioP1;P1;durP2;ratioP2;P2;SDS_P1;SDS_P2;PMS_P1;PMS_P2;Temp;Humidity;BMP_temperature;BMP_pressure;BME280_temperature;BME280_humidity;BME280_pressure;Samples;Min_cycle;Max_cycle;Signal;HPM_P1;HPM_P2
2023/05/16 00:00:40;;;;;;;;;;;12.00;87.80;;;;;;5007134;28;19996;-84
2023/05/16 00:03:06;;;;;;;;;;;12.00;87.70;;;;;;5010285;28;19948;-83
2023/05/16 00:05:31;;;;;;;;;;;12.00;87.80;;;;;;5013421;28;20008;-84
2023/05/16 00:07:57;;;;;;;;;;;12.10;87.00;;;;;;5012923;28;19941;-84
2023/05/16 00:10:22;;;;;;;;;;;12.00;86.50;;;;;;5009199;28;19956;-86
2023/05/16 00:12:50;;;;;;;;;;;11.90;87.20;;;;;;5020199;28;19913;-83
2023/05/16 00:15:16;;;;;;;;;;;11.80;88.20;;;;;;5010769;28;19917;-84
2023/05/16 00:17:45;;;;;;;;;;;11.90;87.20;;;;;;5015448;28;19920;-84
2023/05/16 00:20:12;;;;;;;;;;;11.80;86.90;;;;;;5031038;28;19909;-84
2023/05/16 00:22:38;;;;;;;;;;;11.80;87.20;;;;;;5015884;28;20335;-82
2023/05/16 00:25:04;;;;;;;;;;;11.70;86.80;;;;;;5007012;28;20060;-84
2023/05/16 00:27:29;;;;;;;;;;;11.60;86.50;;;;;;5011273;28;20381;-84
2023/05/16 00:29:55;;;;;;;;;;;11.50;87.10;;;;;;5021562;28;19945;-83
2023/05/16 00:32:21;;;;;;;;;;;11.50;87.60;;;;;;5012909;28;20368;-83
2023/05/16 00:34:46;;;;;;;;;;;11.40;87.80;;;;;;5012318;28;19913;-83
2023/05/16 00:37:12;;;;;;;;;;;11.50;88.00;;;;;;5011420;28;19941;-84
2023/05/16 00:39:37;;;;;;;;;;;11.40;87.60;;;;;;5027413;28;19945;-84
2023/05/16 00:42:03;;;;;;;;;;;11.30;88.10;;;;;;5011206;28;19956;-83
2023/05/16 00:44:29;;;;;;;;;;;11.30;87.60;;;;;;5024612;28;20333;-84
2023/05/16 00:46:55;;;;;;;;;;;11.40;87.80;;;;;;5003177;28;19921;-84
2023/05/16 00:49:21;;;;;;;;;;;11.40;88.10;;;;;;5012610;28;20580;-82
2023/05/16 00:51:47;;;;;;;;;;;11.50;87.90;;;;;;5009982;28;20340;-85
2023/05/16 00:54:12;;;;;;;;;;;11.40;87.60;;;;;;5016696;28;20377;-88
2023/05/16 00:56:38;;;;;;;;;;;11.50;87.10;;;;;;5010729;28;19928;-84
2023/05/16 00:59:04;;;;;;;;;;;11.50;87.60;;;;;;5013421;28;20492;-82
2023/05/16 01:01:30;;;;;;;;;;;11.50;87.60;;;;;;5012228;28;19913;-83
2023/05/16 01:03:56;;;;;;;;;;;11.40;87.80;;;;;;5020542;28;19917;-83
2023/05/16 01:06:21;;;;;;;;;;;11.40;87.10;;;;;;5010892;28;20252;-86
2023/05/16 01:08:47;;;;;;;;;;;11.30;87.40;;;;;;5035107;28;19917;-85
2023/05/16 01:11:12;;;;;;;;;;;11.30;88.30;;;;;;5005236;28;19953;-84
2023/05/16 01:13:55;;;;;;;;;;;11.40;88.10;;;;;;5008913;28;19910;-82
2023/05/16 01:16:25;;;;;;;;;;;11.30;88.10;;;;;;5002329;28;19925;-84
2023/05/16 01:18:55;;;;;;;;;;;11.30;88.00;;;;;;5013464;28;19918;-84
2023/05/16 01:21:42;;;;;;;;;;;11.30;87.20;;;;;;5009272;28;19913;-84
2023/05/16 01:24:21;;;;;;;;;;;11.30;87.90;;;;;;4990920;28;19924;-85
2023/05/16 01:26:47;;;;;;;;;;;11.30;88.20;;;;;;5019472;28;19925;-84
2023/05/16 01:29:13;;;;;;;;;;;11.30;87.80;;;;;;5015011;28;19955;-86
2023/05/16 01:31:39;;;;;;;;;;;11.20;88.20;;;;;;5012502;28;20004;-83
2023/05/16 01:34:04;;;;;;;;;;;11.20;87.30;;;;;;5003683;28;19925;-82
2023/05/16 01:36:48;;;;;;;;;;;11.10;87.30;;;;;;5012009;28;19921;-84
2023/05/16 01:39:35;;;;;;;;;;;11.00;87.60;;;;;;5013778;28;19992;-83
2023/05/16 01:42:05;;;;;;;;;;;11.00;87.80;;;;;;5011274;28;19914;-84
2023/05/16 01:44:34;;;;;;;;;;;10.80;87.40;;;;;;5011962;28;20015;-84
2023/05/16 01:47:01;;;;;;;;;;;10.60;87.60;;;;;;5011248;28;19963;-84
2023/05/16 01:49:31;;;;;;;;;;;10.50;87.40;;;;;;5015905;28;19914;-84
2023/05/16 01:52:00;;;;;;;;;;;10.30;86.60;;;;;;5011244;28;20407;-84
2023/05/16 01:54:29;;;;;;;;;;;10.00;87.10;;;;;;5017268;28;20272;-85
2023/05/16 01:56:55;;;;;;;;;;;9.90;89.10;;;;;;5006429;28;19917;-85
2023/05/16 01:59:22;;;;;;;;;;;9.90;88.90;;;;;;5019519;28;19941;-84
2023/05/16 02:01:48;;;;;;;;;;;9.80;88.50;;;;;;5023827;28;20373;-84
2023/05/16 02:04:14;;;;;;;;;;;9.60;88.60;;;;;;5023122;28;19936;-84
2023/05/16 02:06:40;;;;;;;;;;;9.60;88.90;;;;;;5013834;28;19971;-84
2023/05/16 02:09:06;;;;;;;;;;;9.60;89.00;;;;;;5016945;28;19913;-86
2023/05/16 02:11:31;;;;;;;;;;;9.60;88.80;;;;;;5013900;28;20288;-83
2023/05/16 02:13:57;;;;;;;;;;;9.60;89.10;;;;;;5014706;28;19968;-85
2023/05/16 02:16:22;;;;;;;;;;;9.60;88.30;;;;;;5013700;28;19924;-86
2023/05/16 02:18:48;;;;;;;;;;;9.60;88.60;;;;;;5021286;28;19914;-83
2023/05/16 02:21:13;;;;;;;;;;;9.60;89.60;;;;;;5016267;28;19917;-85
2023/05/16 02:23:39;;;;;;;;;;;9.70;88.30;;;;;;5011537;28;19918;-86
2023/05/16 02:26:05;;;;;;;;;;;9.60;87.60;;;;;;5003916;28;20286;-85
2023/05/16 02:28:30;;;;;;;;;;;9.60;88.10;;;;;;5009501;28;19921;-86
2023/05/16 02:30:57;;;;;;;;;;;9.50;88.30;;;;;;5007243;28;20070;-85
2023/05/16 02:33:22;;;;;;;;;;;9.60;88.30;;;;;;5013468;28;20012;-85
2023/05/16 02:35:48;;;;;;;;;;;9.60;88.20;;;;;;5010275;28;19957;-86
2023/05/16 02:38:16;;;;;;;;;;;9.70;88.50;;;;;;5022409;28;19915;-87
2023/05/16 02:40:41;;;;;;;;;;;9.60;88.30;;;;;;5020328;28;20098;-86
2023/05/16 02:43:07;;;;;;;;;;;9.80;88.00;;;;;;5008814;28;19914;-85
2023/05/16 02:45:32;;;;;;;;;;;9.70;88.10;;;;;;5010619;28;19914;-85
2023/05/16 02:47:58;;;;;;;;;;;9.70;87.90;;;;;;5012113;28;20032;-85
2023/05/16 02:50:23;;;;;;;;;;;9.90;87.40;;;;;;5012694;28;19913;-85
2023/05/16 02:52:49;;;;;;;;;;;9.80;88.10;;;;;;5012665;28;20512;-84
2023/05/16 02:55:15;;;;;;;;;;;9.80;87.50;;;;;;5006417;28;20716;-85
2023/05/16 02:57:40;;;;;;;;;;;9.80;87.40;;;;;;5005605;28;20008;-86
2023/05/16 03:00:06;;;;;;;;;;;9.70;87.90;;;;;;5009244;28;19968;-86
2023/05/16 03:02:32;;;;;;;;;;;9.80;88.00;;;;;;5011303;28;19918;-85
2023/05/16 03:04:57;;;;;;;;;;;9.70;88.50;;;;;;5011219;28;20403;-87
2023/05/16 03:07:23;;;;;;;;;;;9.70;87.50;;;;;;5012483;28;19917;-86
2023/05/16 03:09:48;;;;;;;;;;;9.80;87.30;;;;;;5020704;28;20327;-88
2023/05/16 03:12:14;;;;;;;;;;;9.80;86.90;;;;;;5011270;28;19976;-86
2023/05/16 03:14:39;;;;;;;;;;;9.80;87.80;;;;;;5012528;28;20249;-86
2023/05/16 03:17:05;;;;;;;;;;;9.90;87.80;;;;;;5011186;28;19914;-85
2023/05/16 03:19:30;;;;;;;;;;;9.90;87.40;;;;;;5011773;28;19952;-88
2023/05/16 03:21:56;;;;;;;;;;;9.80;87.90;;;;;;5011970;28;19917;-86
2023/05/16 03:24:22;;;;;;;;;;;9.90;87.50;;;;;;5013174;28;19989;-85
2023/05/16 03:26:47;;;;;;;;;;;9.80;87.10;;;;;;5011410;28;19924;-85
2023/05/16 03:29:13;;;;;;;;;;;9.90;86.20;;;;;;5012357;28;19922;-85
2023/05/16 03:31:38;;;;;;;;;;;9.70;86.60;;;;;;5010706;28;20433;-84
2023/05/16 03:34:03;;;;;;;;;;;9.70;87.00;;;;;;5024510;28;19917;-86
2023/05/16 03:36:29;;;;;;;;;;;9.70;87.30;;;;;;5015307;28;19914;-85
2023/05/16 03:38:54;;;;;;;;;;;9.70;87.70;;;;;;5012530;28;19976;-87
2023/05/16 03:41:21;;;;;;;;;;;9.70;87.50;;;;;;5011490;28;19913;-86
2023/05/16 03:43:46;;;;;;;;;;;9.70;87.10;;;;;;5019973;28;19951;-85
2023/05/16 03:46:12;;;;;;;;;;;9.90;86.50;;;;;;5017151;28;19910;-85
2023/05/16 03:48:37;;;;;;;;;;;9.80;86.60;;;;;;5012313;28;19918;-84
2023/05/16 03:51:02;;;;;;;;;;;9.60;86.70;;;;;;5010077;28;19909;-83
2023/05/16 03:53:28;;;;;;;;;;;9.60;87.00;;;;;;5010274;28;20369;-85
2023/05/16 03:55:53;;;;;;;;;;;9.60;86.30;;;;;;5001189;28;19910;-84
2023/05/16 03:58:19;;;;;;;;;;;9.50;86.30;;;;;;5013348;28;20673;-84
2023/05/16 04:00:45;;;;;;;;;;;9.50;86.60;;;;;;5010526;28;19942;-84
2023/05/16 04:03:11;;;;;;;;;;;9.60;86.20;;;;;;5012357;28;19918;-83
2023/05/16 04:05:36;;;;;;;;;;;9.60;84.70;;;;;;5009674;28;19918;-85
2023/05/16 04:08:02;;;;;;;;;;;9.50;83.80;;;;;;5012272;28;19926;-83
2023/05/16 04:10:27;;;;;;;;;;;9.50;84.30;;;;;;5009154;28;19917;-83
2023/05/16 04:12:53;;;;;;;;;;;9.30;85.30;;;;;;5010579;28;19949;-82
2023/05/16 04:15:18;;;;;;;;;;;9.40;84.30;;;;;;5007661;28;19960;-86
2023/05/16 04:17:44;;;;;;;;;;;9.30;84.80;;;;;;5016429;28;19909;-84
2023/05/16 04:20:10;;;;;;;;;;;9.40;84.70;;;;;;5011258;28;19989;-85
2023/05/16 04:22:35;;;;;;;;;;;9.40;85.00;;;;;;5008823;28;19910;-86
2023/05/16 04:25:01;;;;;;;;;;;9.20;85.50;;;;;;5010215;28;20059;-86
2023/05/16 04:27:26;;;;;;;;;;;9.30;85.10;;;;;;5011134;28;19913;-84
2023/05/16 04:29:52;;;;;;;;;;;9.30;85.00;;;;;;5007388;28;19917;-82
2023/05/16 04:32:18;;;;;;;;;;;9.30;84.10;;;;;;5010548;28;19920;-83
2023/05/16 04:34:45;;;;;;;;;;;9.10;85.20;;;;;;5005405;28;19920;-84
2023/05/16 04:37:11;;;;;;;;;;;9.20;85.10;;;;;;5008788;28;19968;-84
2023/05/16 04:39:36;;;;;;;;;;;9.10;85.10;;;;;;5009332;28;19918;-83
2023/05/16 04:42:03;;;;;;;;;;;9.10;85.50;;;;;;5008119;28;20004;-84
2023/05/16 04:44:28;;;;;;;;;;;9.20;84.80;;;;;;5005671;28;19971;-85
2023/05/16 04:46:54;;;;;;;;;;;9.10;85.40;;;;;;5009466;28;19925;-83
2023/05/16 04:49:20;;;;;;;;;;;9.20;85.30;;;;;;5008815;28;19914;-87
2023/05/16 04:51:46;;;;;;;;;;;9.10;85.20;;;;;;5011647;28;20388;-85
2023/05/16 04:54:11;;;;;;;;;;;9.10;85.70;;;;;;5005725;28;19921;-88
2023/05/16 04:56:37;;;;;;;;;;;9.10;85.70;;;;;;5008063;28;19913;-85
2023/05/16 04:59:03;;;;;;;;;;;9.20;85.10;;;;;;5005241;28;20391;-84
2023/05/16 05:01:28;;;;;;;;;;;9.30;83.90;;;;;;5008398;28;19917;-85
2023/05/16 05:03:54;;;;;;;;;;;9.30;84.00;;;;;;5007053;28;19913;-82
2023/05/16 05:06:20;;;;;;;;;;;9.40;84.40;;;;;;5002439;28;20697;-84
2023/05/16 05:08:45;;;;;;;;;;;9.40;85.10;;;;;;5014099;28;19929;-83
2023/05/16 05:11:11;;;;;;;;;;;9.30;84.90;;;;;;4999723;28;19914;-83
2023/05/16 05:13:36;;;;;;;;;;;9.60;83.30;;;;;;5006622;28;19941;-84
2023/05/16 05:16:03;;;;;;;;;;;9.60;83.40;;;;;;5005690;28;19953;-84
2023/05/16 05:18:29;;;;;;;;;;;9.60;83.00;;;;;;5004163;28;20680;-83
2023/05/16 05:20:55;;;;;;;;;;;9.70;82.50;;;;;;5005537;28;19925;-83
2023/05/16 05:23:20;;;;;;;;;;;9.70;82.10;;;;;;4999653;28;19917;-82
2023/05/16 05:25:46;;;;;;;;;;;9.80;81.60;;;;;;5006434;28;19992;-83
2023/05/16 05:28:11;;;;;;;;;;;9.80;81.80;;;;;;5004607;28;19924;-84
2023/05/16 05:30:37;;;;;;;;;;;9.80;80.90;;;;;;5003187;28;20299;-82
2023/05/16 05:33:02;;;;;;;;;;;9.80;81.70;;;;;;5001530;28;20270;-83
2023/05/16 05:35:28;;;;;;;;;;;10.10;81.00;;;;;;5005993;28;19995;-85
2023/05/16 05:37:53;;;;;;;;;;;10.40;79.40;;;;;;5012469;28;19983;-82
2023/05/16 05:40:19;;;;;;;;;;;10.30;79.20;;;;;;5016297;28;20423;-82
2023/05/16 05:42:44;;;;;;;;;;;10.30;77.80;;;;;;5014694;28;20339;-84
2023/05/16 05:45:10;;;;;;;;;;;10.30;80.20;;;;;;5026191;28;19955;-84
2023/05/16 05:47:35;;;;;;;;;;;10.30;78.80;;;;;;5027655;28;19949;-83
2023/05/16 05:50:01;;;;;;;;;;;10.30;78.50;;;;;;5011350;28;19909;-82
2023/05/16 05:52:27;;;;;;;;;;;10.60;79.10;;;;;;5019253;28;19964;-84
2023/05/16 05:54:53;;;;;;;;;;;10.80;77.60;;;;;;5018537;28;19910;-85
2023/05/16 05:57:18;;;;;;;;;;;10.70;77.00;;;;;;5020269;28;19914;-85
2023/05/16 05:59:43;;;;;;;;;;;10.70;77.60;;;;;;5020104;28;19913;-84
2023/05/16 06:02:09;;;;;;;;;;;10.50;78.70;;;;;;5018855;28;19925;-85
2023/05/16 06:04:35;;;;;;;;;;;10.30;78.40;;;;;;5022626;28;19965;-85
2023/05/16 06:07:00;;;;;;;;;;;10.30;78.10;;;;;;5020035;28;19913;-83
2023/05/16 06:09:26;;;;;;;;;;;10.10;80.00;;;;;;5013581;28;19917;-84
2023/05/16 06:11:51;;;;;;;;;;;10.00;81.80;;;;;;5016157;28;19940;-86
2023/05/16 06:14:17;;;;;;;;;;;10.10;80.40;;;;;;5018116;28;20001;-85
2023/05/16 06:16:42;;;;;;;;;;;10.20;79.80;;;;;;5016746;28;19917;-85
2023/05/16 06:19:08;;;;;;;;;;;10.10;78.50;;;;;;5016618;28;19913;-87
2023/05/16 06:21:33;;;;;;;;;;;10.00;79.60;;;;;;5012330;28;19917;-86
2023/05/16 06:23:59;;;;;;;;;;;10.10;80.00;;;;;;5025731;28;19918;-85
2023/05/16 06:26:24;;;;;;;;;;;10.20;78.80;;;;;;5015742;28;19967;-85
2023/05/16 06:28:50;;;;;;;;;;;10.20;78.20;;;;;;5017807;28;20270;-84
2023/05/16 06:31:15;;;;;;;;;;;10.20;77.90;;;;;;5017010;28;20396;-84
2023/05/16 06:33:41;;;;;;;;;;;10.10;78.20;;;;;;5016628;28;19924;-84
2023/05/16 06:36:06;;;;;;;;;;;10.10;79.10;;;;;;5016139;28;20168;-82
2023/05/16 06:38:32;;;;;;;;;;;10.10;77.90;;;;;;5027632;28;19920;-84
2023/05/16 06:40:57;;;;;;;;;;;10.10;79.10;;;;;;5010876;28;20388;-84
2023/05/16 06:43:23;;;;;;;;;;;10.10;79.10;;;;;;5033110;22;19925;-79
2023/05/16 06:45:48;;;;;;;;;;;10.20;79.30;;;;;;5026167;28;19921;-79
2023/05/16 06:48:14;;;;;;;;;;;10.20;78.60;;;;;;5027042;28;19920;-81
2023/05/16 06:50:40;;;;;;;;;;;10.30;77.60;;;;;;5020842;28;19921;-81
2023/05/16 06:53:06;;;;;;;;;;;10.40;78.00;;;;;;5019728;28;19918;-80
2023/05/16 06:55:32;;;;;;;;;;;10.50;76.80;;;;;;5024052;28;19920;-81
2023/05/16 06:57:57;;;;;;;;;;;10.60;76.60;;;;;;5041717;28;19913;-80
2023/05/16 07:00:23;;;;;;;;;;;10.60;75.00;;;;;;5022581;28;19924;-81
2023/05/16 07:02:49;;;;;;;;;;;10.60;75.30;;;;;;5027771;28;20369;-80
2023/05/16 07:05:14;;;;;;;;;;;10.60;73.20;;;;;;5020673;28;19959;-81
2023/05/16 07:07:40;;;;;;;;;;;10.50;74.90;;;;;;5017179;28;19921;-81
2023/05/16 07:10:06;;;;;;;;;;;10.60;74.30;;;;;;5014718;28;19913;-80
2023/05/16 07:12:31;;;;;;;;;;;10.60;74.50;;;;;;5018468;28;20451;-81
2023/05/16 07:14:57;;;;;;;;;;;10.70;73.50;;;;;;5011064;28;19937;-80
2023/05/16 07:17:22;;;;;;;;;;;10.80;72.70;;;;;;5018954;28;19952;-81
2023/05/16 07:19:48;;;;;;;;;;;10.80;73.30;;;;;;5017795;28;19983;-80
2023/05/16 07:22:14;;;;;;;;;;;11.00;73.30;;;;;;5018460;28;19914;-81
2023/05/16 07:24:39;;;;;;;;;;;11.00;73.80;;;;;;5018017;28;19977;-82
2023/05/16 07:27:05;;;;;;;;;;;11.10;71.70;;;;;;5017770;28;19924;-80
2023/05/16 07:29:31;;;;;;;;;;;11.20;73.30;;;;;;5017130;28;19928;-81
2023/05/16 07:31:56;;;;;;;;;;;11.30;72.10;;;;;;5012878;28;19913;-81
2023/05/16 07:34:22;;;;;;;;;;;11.30;71.80;;;;;;5020577;28;20320;-80
2023/05/16 07:36:47;;;;;;;;;;;11.20;70.70;;;;;;5021767;28;19940;-80
2023/05/16 07:39:13;;;;;;;;;;;11.10;68.80;;;;;;5020310;28;19914;-81
2023/05/16 07:41:38;;;;;;;;;;;10.90;70.60;;;;;;5017280;28;20385;-80
2023/05/16 07:44:04;;;;;;;;;;;10.80;71.50;;;;;;5021024;28;19920;-80
2023/05/16 07:46:30;;;;;;;;;;;10.90;70.80;;;;;;5020428;28;19909;-78
2023/05/16 07:48:55;;;;;;;;;;;10.80;73.40;;;;;;5019924;28;19928;-81
2023/05/16 07:51:21;;;;;;;;;;;10.90;72.10;;;;;;5022455;28;19940;-81
2023/05/16 07:53:46;;;;;;;;;;;11.00;71.60;;;;;;5032168;28;19917;-80
2023/05/16 07:56:12;;;;;;;;;;;11.00;68.60;;;;;;5030018;28;19913;-79
2023/05/16 07:58:37;;;;;;;;;;;11.10;67.80;;;;;;5019710;28;19910;-81
2023/05/16 08:01:03;;;;;;;;;;;11.00;67.40;;;;;;5020663;28;19988;-83
2023/05/16 08:03:29;;;;;;;;;;;10.80;69.30;;;;;;5015356;28;19920;-81
2023/05/16 08:05:54;;;;;;;;;;;10.70;72.10;;;;;;5022258;28;19981;-80
2023/05/16 08:08:20;;;;;;;;;;;10.80;68.30;;;;;;5020876;28;19928;-80
2023/05/16 08:10:46;;;;;;;;;;;11.00;65.10;;;;;;5029831;28;19945;-80
2023/05/16 08:13:11;;;;;;;;;;;11.10;66.60;;;;;;5031102;28;19913;-81
2023/05/16 08:15:36;;;;;;;;;;;11.10;65.00;;;;;;5021270;28;19936;-83
2023/05/16 08:18:02;;;;;;;;;;;11.20;63.70;;;;;;5011747;28;19913;-82
2023/05/16 08:20:27;;;;;;;;;;;11.20;64.40;;;;;;5019113;28;19917;-81
2023/05/16 08:22:53;;;;;;;;;;;11.50;63.10;;;;;;5016966;28;19973;-83
2023/05/16 08:25:19;;;;;;;;;;;11.60;61.80;;;;;;5018749;28;19913;-82
2023/05/16 08:27:45;;;;;;;;;;;11.50;63.40;;;;;;5014781;28;19921;-81
2023/05/16 08:30:11;;;;;;;;;;;11.80;62.10;;;;;;5023800;28;19909;-80
2023/05/16 08:32:37;;;;;;;;;;;11.90;61.60;;;;;;5013604;28;20292;-80
2023/05/16 08:35:02;;;;;;;;;;;12.00;61.60;;;;;;5016696;28;19917;-81
2023/05/16 08:37:28;;;;;;;;;;;12.10;60.60;;;;;;5024681;28;20343;-79
2023/05/16 08:39:53;;;;;;;;;;;11.90;61.20;;;;;;5019850;28;19928;-80
2023/05/16 08:42:19;;;;;;;;;;;11.80;61.10;;;;;;5016628;28;19925;-82
2023/05/16 08:44:44;;;;;;;;;;;11.80;60.80;;;;;;5014982;28;19909;-81
2023/05/16 08:47:14;;;;;;;;;;;11.90;61.60;;;;;;5016001;28;19964;-81
2023/05/16 08:49:42;;;;;;;;;;;12.00;62.70;;;;;;5010204;28;19920;-81
2023/05/16 08:52:08;;;;;;;;;;;12.30;58.10;;;;;;5013050;28;20280;-82
2023/05/16 08:54:35;;;;;;;;;;;12.30;61.90;;;;;;5015647;28;19918;-81
2023/05/16 08:57:03;;;;;;;;;;;12.50;58.00;;;;;;5022779;28;20242;-80
2023/05/16 08:59:29;;;;;;;;;;;12.40;57.20;;;;;;5017919;28;19917;-80
2023/05/16 09:01:54;;;;;;;;;;;12.50;56.40;;;;;;5015460;28;19909;-82
2023/05/16 09:04:20;;;;;;;;;;;12.40;56.20;;;;;;5017006;28;19989;-81
2023/05/16 09:06:47;;;;;;;;;;;12.40;58.50;;;;;;5015313;28;19928;-82
2023/05/16 09:09:12;;;;;;;;;;;12.50;55.80;;;;;;5016927;28;19924;-82
2023/05/16 09:11:38;;;;;;;;;;;12.60;53.70;;;;;;5017897;28;19914;-82
2023/05/16 09:14:06;;;;;;;;;;;12.70;54.40;;;;;;5019267;28;20091;-82
2023/05/16 09:16:31;;;;;;;;;;;12.90;54.10;;;;;;5016453;28;20012;-83
2023/05/16 09:18:58;;;;;;;;;;;13.00;55.60;;;;;;5014020;28;19949;-84
2023/05/16 09:21:28;;;;;;;;;;;13.10;57.80;;;;;;5013819;28;19936;-80
2023/05/16 09:23:54;;;;;;;;;;;13.30;57.20;;;;;;5007566;28;19960;-79
2023/05/16 09:26:20;;;;;;;;;;;13.20;55.30;;;;;;5006496;28;19922;-82
2023/05/16 09:28:46;;;;;;;;;;;13.10;53.20;;;;;;5006266;28;19917;-84
2023/05/16 09:31:25;;;;;;;;;;;12.80;55.40;;;;;;5013002;28;20270;-84
2023/05/16 09:33:57;;;;;;;;;;;12.70;55.70;;;;;;5016933;28;20493;-83
2023/05/16 09:36:22;;;;;;;;;;;12.70;55.00;;;;;;5018187;28;19910;-84
2023/05/16 09:38:51;;;;;;;;;;;12.70;54.30;;;;;;5015455;28;19921;-84
2023/05/16 09:41:17;;;;;;;;;;;12.90;56.20;;;;;;5013545;28;20012;-83
2023/05/16 09:43:43;;;;;;;;;;;13.10;53.80;;;;;;5017052;28;19969;-83
2023/05/16 09:46:13;;;;;;;;;;;13.10;53.90;;;;;;5018034;28;19917;-85
2023/05/16 09:48:48;;;;;;;;;;;13.10;54.80;;;;;;5011180;28;19925;-81
2023/05/16 09:51:13;;;;;;;;;;;12.90;54.90;;;;;;5010815;28;20004;-85
2023/05/16 09:53:40;;;;;;;;;;;13.10;51.90;;;;;;5015720;28;19999;-81
2023/05/16 09:56:15;;;;;;;;;;;13.10;52.00;;;;;;5015548;28;19914;-82
2023/05/16 09:58:42;;;;;;;;;;;13.10;53.80;;;;;;5018760;28;19965;-81
2023/05/16 10:01:08;;;;;;;;;;;13.30;53.40;;;;;;5021132;28;19933;-81
2023/05/16 10:03:39;;;;;;;;;;;13.30;52.90;;;;;;5019392;28;19910;-82
2023/05/16 10:06:06;;;;;;;;;;;13.20;52.70;;;;;;5015960;28;19988;-83
2023/05/16 10:08:35;;;;;;;;;;;13.30;53.30;;;;;;5024448;28;19918;-82
2023/05/16 10:11:01;;;;;;;;;;;13.30;54.10;;;;;;5019813;28;19910;-83
2023/05/16 10:13:28;;;;;;;;;;;13.40;52.50;;;;;;5013521;28;20300;-82
2023/05/16 10:15:57;;;;;;;;;;;13.40;53.10;;;;;;5020184;28;19913;-83
2023/05/16 10:18:30;;;;;;;;;;;13.60;54.00;;;;;;5033936;28;19909;-83
2023/05/16 10:20:56;;;;;;;;;;;13.70;52.10;;;;;;5034793;28;19920;-82
2023/05/16 10:23:24;;;;;;;;;;;13.60;53.00;;;;;;5037038;28;19909;-85
2023/05/16 10:25:50;;;;;;;;;;;13.70;50.80;;;;;;5038512;28;19917;-83
2023/05/16 10:28:15;;;;;;;;;;;13.60;51.60;;;;;;5037226;28;19929;-84
2023/05/16 10:30:45;;;;;;;;;;;13.60;52.50;;;;;;5029259;28;19916;-82
2023/05/16 10:33:14;;;;;;;;;;;13.60;52.50;;;;;;5029701;28;19913;-84
2023/05/16 10:35:41;;;;;;;;;;;13.60;52.20;;;;;;5019180;28;19909;-83
2023/05/16 10:38:08;;;;;;;;;;;13.90;51.80;;;;;;5019438;28;19910;-82
2023/05/16 10:40:37;;;;;;;;;;;14.00;51.50;;;;;;5018861;28;19980;-84
2023/05/16 10:43:04;;;;;;;;;;;14.10;50.80;;;;;;5015349;28;20577;-83
2023/05/16 10:45:29;;;;;;;;;;;14.30;50.30;;;;;;5012613;28;19929;-84
2023/05/16 10:47:59;;;;;;;;;;;14.50;49.70;;;;;;5018949;28;20269;-84
2023/05/16 10:50:35;;;;;;;;;;;14.30;50.10;;;;;;5018900;28;19967;-83
2023/05/16 10:53:20;;;;;;;;;;;14.40;51.30;;;;;;5018973;28;20014;-83
2023/05/16 10:55:57;;;;;;;;;;;14.50;49.90;;;;;;5018831;28;19913;-81
2023/05/16 10:58:32;;;;;;;;;;;14.60;49.70;;;;;;5017543;28;19914;-83
2023/05/16 11:01:16;;;;;;;;;;;14.50;50.70;;;;;;5016772;28;19920;-82
2023/05/16 11:04:00;;;;;;;;;;;14.30;51.00;;;;;;5015212;28;19917;-83
2023/05/16 11:06:35;;;;;;;;;;;14.30;51.20;;;;;;5013907;28;19917;-84
2023/05/16 11:09:13;;;;;;;;;;;14.10;51.60;;;;;;5020697;28;19914;-83
2023/05/16 11:11:40;;;;;;;;;;;14.20;51.30;;;;;;5016486;28;20292;-82
2023/05/16 11:14:05;;;;;;;;;;;14.60;52.00;;;;;;5019334;28;19913;-83
2023/05/16 11:16:32;;;;;;;;;;;14.80;51.70;;;;;;5018206;28;19924;-83
2023/05/16 11:19:05;;;;;;;;;;;15.00;50.10;;;;;;5018171;28;19909;-83
2023/05/16 11:21:50;;;;;;;;;;;15.00;51.40;;;;;;5017530;28;19935;-82
2023/05/16 11:24:31;;;;;;;;;;;14.80;53.90;;;;;;5018513;28;19910;-82
2023/05/16 11:26:58;;;;;;;;;;;14.80;50.40;;;;;;5017971;28;20324;-83
2023/05/16 11:29:24;;;;;;;;;;;14.70;52.50;;;;;;5029208;28;19913;-84
2023/05/16 11:31:51;;;;;;;;;;;14.90;52.70;;;;;;5020476;28;19917;-83
2023/05/16 11:34:17;;;;;;;;;;;15.30;51.30;;;;;;5007698;28;19924;-84
2023/05/16 11:36:45;;;;;;;;;;;15.30;51.20;;;;;;5011568;28;19909;-82
2023/05/16 11:39:11;;;;;;;;;;;15.20;50.20;;;;;;5017572;28;19909;-84
2023/05/16 11:41:37;;;;;;;;;;;15.40;49.50;;;;;;5006698;28;19914;-83
2023/05/16 11:44:04;;;;;;;;;;;15.60;50.10;;;;;;5016101;28;19918;-82
2023/05/16 11:46:30;;;;;;;;;;;15.90;49.50;;;;;;5023028;28;19909;-84
2023/05/16 11:48:58;;;;;;;;;;;15.70;48.90;;;;;;5039346;28;19975;-82
2023/05/16 11:51:24;;;;;;;;;;;15.70;48.80;;;;;;5039363;28;19936;-83
2023/05/16 11:53:52;;;;;;;;;;;15.40;50.40;;;;;;5039738;28;20372;-83
2023/05/16 11:56:17;;;;;;;;;;;15.30;50.30;;;;;;5038007;28;19909;-83
2023/05/16 11:58:43;;;;;;;;;;;15.00;51.90;;;;;;5040587;28;20014;-83
2023/05/16 12:01:09;;;;;;;;;;;14.90;51.30;;;;;;5035551;28;19913;-83
2023/05/16 12:03:35;;;;;;;;;;;14.80;51.10;;;;;;5014300;28;20357;-83
2023/05/16 12:06:01;;;;;;;;;;;14.60;53.50;;;;;;5018344;28;19914;-84
2023/05/16 12:08:26;;;;;;;;;;;14.60;54.50;;;;;;5021442;28;20000;-82
2023/05/16 12:10:52;;;;;;;;;;;14.50;53.90;;;;;;5018563;28;19917;-82
2023/05/16 12:13:19;;;;;;;;;;;14.30;55.50;;;;;;5016841;28;19917;-85
2023/05/16 12:15:45;;;;;;;;;;;14.20;57.30;;;;;;5018140;28;20371;-88
2023/05/16 12:18:13;;;;;;;;;;;14.10;57.90;;;;;;5012433;28;19924;-86
2023/05/16 12:20:39;;;;;;;;;;;14.00;59.90;;;;;;5020348;28;19993;-84
2023/05/16 12:23:08;;;;;;;;;;;14.10;59.00;;;;;;5024554;28;19952;-85
2023/05/16 12:25:36;;;;;;;;;;;14.10;57.30;;;;;;5016512;28;20423;-81
2023/05/16 12:28:02;;;;;;;;;;;14.40;56.90;;;;;;5022458;28;19920;-86
2023/05/16 12:30:29;;;;;;;;;;;14.40;56.60;;;;;;5018423;28;20464;-85
2023/05/16 12:33:20;;;;;;;;;;;14.30;56.40;;;;;;5034126;28;19913;-85
2023/05/16 12:35:51;;;;;;;;;;;14.10;55.20;;;;;;4985813;28;19913;-85
2023/05/16 12:38:25;;;;;;;;;;;13.90;55.40;;;;;;5019726;28;19924;-84
2023/05/16 12:40:56;;;;;;;;;;;14.00;56.10;;;;;;5027764;28;19973;-84
2023/05/16 12:48:35;;;;;;;;;;;14.00;54.80;;;;;;3256161;26;19936;-87
2023/05/16 12:51:36;;;;;;;;;;;14.00;55.40;;;;;;5012406;28;19921;-86
2023/05/16 12:54:11;;;;;;;;;;;14.30;53.50;;;;;;4974879;28;19917;-86
2023/05/16 12:56:37;;;;;;;;;;;14.50;53.00;;;;;;5022076;28;19913;-86
2023/05/16 12:59:44;;;;;;;;;;;;;;;;;;;;;
2023/05/16 13:02:10;;;;;;;;;;;15.00;52.00;;;;;;4991187;28;20490;-85
2023/05/16 13:05:04;;;;;;;;;;;15.20;52.00;;;;;;4995882;28;19953;-87
2023/05/16 13:07:30;;;;;;;;;;;15.30;51.30;;;;;;5007474;28;19918;-85
2023/05/16 13:10:05;;;;;;;;;;;15.10;47.60;;;;;;4995758;28;20454;-84
2023/05/16 13:13:08;;;;;;;;;;;15.00;49.30;;;;;;5014236;28;20322;-85
2023/05/16 13:15:33;;;;;;;;;;;14.90;49.90;;;;;;5002345;28;19920;-85
2023/05/16 13:18:46;;;;;;;;;;;14.60;51.10;;;;;;4991495;28;19914;-84
2023/05/16 13:21:12;;;;;;;;;;;14.50;51.90;;;;;;4993342;28;20326;-84
2023/05/16 13:23:39;;;;;;;;;;;14.50;52.30;;;;;;4996287;28;19914;-84
2023/05/16 13:26:05;;;;;;;;;;;14.60;50.70;;;;;;5009356;28;20387;-83
2023/05/16 13:28:32;;;;;;;;;;;14.60;51.50;;;;;;5001477;28;19917;-83
2023/05/16 13:30:58;;;;;;;;;;;14.70;51.80;;;;;;4992350;28;20559;-83
2023/05/16 13:33:23;;;;;;;;;;;14.60;51.40;;;;;;4987980;28;19914;-82
2023/05/16 13:35:50;;;;;;;;;;;14.80;50.40;;;;;;4994678;28;19914;-82
2023/05/16 13:38:15;;;;;;;;;;;14.90;50.80;;;;;;5007996;28;20307;-82
2023/05/16 13:40:41;;;;;;;;;;;15.10;52.00;;;;;;4992604;28;19914;-83
2023/05/16 13:43:07;;;;;;;;;;;15.50;50.30;;;;;;4993297;28;19919;-82
2023/05/16 13:45:33;;;;;;;;;;;15.60;45.30;;;;;;4987020;28;20012;-85
2023/05/16 13:47:59;;;;;;;;;;;15.70;44.80;;;;;;4985265;28;20036;-83
2023/05/16 13:50:24;;;;;;;;;;;15.70;44.30;;;;;;4991936;28;20330;-83
2023/05/16 13:52:50;;;;;;;;;;;16.00;44.30;;;;;;4992869;28;19922;-83
2023/05/16 13:55:17;;;;;;;;;;;15.90;44.30;;;;;;4991323;28;19976;-83
2023/05/16 13:57:42;;;;;;;;;;;15.80;44.20;;;;;;4992658;28;19928;-84
2023/05/16 14:00:11;;;;;;;;;;;15.50;45.30;;;;;;4997179;28;19917;-85
2023/05/16 14:02:40;;;;;;;;;;;15.30;46.50;;;;;;5009640;28;19962;-84
2023/05/16 14:05:09;;;;;;;;;;;15.50;46.30;;;;;;4993780;28;19910;-85
2023/05/16 14:08:06;;;;;;;;;;;15.20;47.80;;;;;;4998161;28;19925;-84
2023/05/16 14:10:46;;;;;;;;;;;15.20;46.90;;;;;;5005471;28;19914;-84
2023/05/16 14:13:17;;;;;;;;;;;15.10;46.20;;;;;;4995549;28;19936;-84
2023/05/16 14:15:57;;;;;;;;;;;15.00;46.90;;;;;;4987928;28;20359;-84
2023/05/16 14:18:22;;;;;;;;;;;15.30;46.00;;;;;;5015269;28;19977;-84
2023/05/16 14:20:49;;;;;;;;;;;15.20;46.10;;;;;;4991683;28;19957;-83
2023/05/16 14:23:15;;;;;;;;;;;15.10;45.70;;;;;;4998236;28;19913;-83
2023/05/16 14:25:43;;;;;;;;;;;15.10;46.00;;;;;;5017240;28;19973;-84
2023/05/16 14:28:08;;;;;;;;;;;14.90;46.80;;;;;;5011029;28;19917;-84